Time;durP1;ratioP1;P1;durP2;ratioP2;P2;SDS_P1;SDS_P2;PMS_P1;PMS_P2;Temp;Humidity;BMP_temperature;BMP_pressure;BME280_temperature;BME280_humidity;BME280_pressure;Samples;Min_cycle;Max_cycle;Signal;HPM_P1;HPM_P2
2021/05/01 00:00:55;;;;;;;8.90;6.20;;;8.70;89.60;;;;;;2091927;28;20029;-83
2021/05/01 00:01:55;;;;;;;8.68;6.00;;;8.70;89.50;;;;;;2068164;28;20029;-82
2021/05/01 00:02:56;;;;;;;7.40;6.20;;;8.70;89.60;;;;;;2062774;28;20476;-82
2021/05/01 00:03:57;;;;;;;10.90;5.95;;;8.70;89.60;;;;;;2087518;28;20128;-82
2021/05/01 00:04:57;;;;;;;8.40;5.82;;;8.70;89.50;;;;;;2085785;28;20117;-83
2021/05/01 00:05:58;;;;;;;7.65;5.93;;;8.70;90.00;;;;;;2078522;28;20530;-83
2021/05/01 00:06:59;;;;;;;7.68;5.68;;;8.70;89.50;;;;;;2076258;28;20022;-83
2021/05/01 00:07:59;;;;;;;7.93;5.70;;;8.70;89.50;;;;;;2070980;28;20113;-82
2021/05/01 00:09:00;;;;;;;8.85;6.05;;;8.70;89.40;;;;;;2071423;28;20025;-83
2021/05/01 00:10:02;;;;;;;9.27;6.50;;;8.70;89.40;;;;;;2085135;28;20569;-83
2021/05/01 00:11:03;;;;;;;8.18;6.03;;;8.70;89.40;;;;;;2096001;28;20059;-83
2021/05/01 00:12:04;;;;;;;7.82;5.82;;;8.60;89.40;;;;;;2076995;28;20075;-83
2021/05/01 00:13:05;;;;;;;7.65;5.97;;;8.70;89.40;;;;;;2077314;28;20048;-82
2021/05/01 00:14:06;;;;;;;8.68;6.18;;;8.60;89.30;;;;;;2092510;28;20031;-83
2021/05/01 00:15:09;;;;;;;8.50;5.95;;;8.70;89.40;;;;;;2082647;28;20136;-83
2021/05/01 00:16:10;;;;;;;8.77;6.20;;;8.60;89.30;;;;;;2079944;28;20380;-83
2021/05/01 00:17:10;;;;;;;8.30;6.13;;;8.60;89.30;;;;;;2087203;28;21464;-83
2021/05/01 00:18:11;;;;;;;11.32;6.28;;;8.60;89.30;;;;;;2076848;28;20064;-82
2021/05/01 00:19:12;;;;;;;8.68;6.72;;;8.60;89.30;;;;;;2078131;28;20034;-83
2021/05/01 00:20:13;;;;;;;8.50;6.22;;;8.60;89.30;;;;;;2080893;28;20079;-83
2021/05/01 00:21:13;;;;;;;8.15;5.75;;;8.60;89.30;;;;;;2079594;28;20456;-83
2021/05/01 00:22:14;;;;;;;9.00;6.57;;;8.60;89.30;;;;;;2076233;28;20043;-83
2021/05/01 00:23:15;;;;;;;8.63;6.65;;;8.60;89.20;;;;;;2075499;28;20045;-82
2021/05/01 00:24:15;;;;;;;8.05;6.60;;;8.60;89.30;;;;;;2075501;28;20030;-83
2021/05/01 00:25:16;;;;;;;9.15;6.75;;;8.60;89.30;;;;;;2076707;28;20033;-82
2021/05/01 00:26:17;;;;;;;10.55;7.50;;;8.60;89.30;;;;;;2067182;28;20030;-83
2021/05/01 00:27:17;;;;;;;9.43;7.07;;;8.60;89.30;;;;;;2067567;28;20034;-83
2021/05/01 00:28:18;;;;;;;10.00;7.57;;;8.60;89.30;;;;;;2076018;28;20476;-84
2021/05/01 00:29:19;;;;;;;9.95;7.35;;;8.60;89.20;;;;;;2070124;28;20033;-84
2021/05/01 00:30:20;;;;;;;9.07;7.68;;;8.60;89.20;;;;;;2078979;28;20028;-83
2021/05/01 00:31:21;;;;;;;9.40;6.97;;;8.50;89.20;;;;;;2071155;28;20121;-83
2021/05/01 00:32:22;;;;;;;10.10;7.68;;;8.60;89.20;;;;;;2053389;28;20565;-83
2021/05/01 00:33:22;;;;;;;9.30;7.20;;;8.50;89.20;;;;;;2068803;28;20392;-83
2021/05/01 00:34:23;;;;;;;9.85;7.80;;;8.50;89.20;;;;;;2085659;28;20129;-83
2021/05/01 00:35:24;;;;;;;10.75;7.97;;;8.50;89.20;;;;;;2062450;28;20062;-82
2021/05/01 00:36:25;;;;;;;10.65;8.00;;;8.50;89.20;;;;;;2060891;28;20042;-84
2021/05/01 00:37:25;;;;;;;10.80;7.72;;;8.50;89.20;;;;;;2061705;28;20026;-83
2021/05/01 00:38:26;;;;;;;11.43;8.57;;;8.50;89.20;;;;;;2069790;28;20034;-83
2021/05/01 00:39:27;;;;;;;10.65;8.40;;;8.50;89.20;;;;;;2086996;28;20040;-83
2021/05/01 00:40:28;;;;;;;11.65;8.02;;;8.50;89.10;;;;;;2079977;28;20021;-83
2021/05/01 00:41:28;;;;;;;10.15;8.23;;;8.50;89.20;;;;;;2078220;28;20065;-83
2021/05/01 00:42:29;;;;;;;11.52;8.23;;;8.50;89.10;;;;;;2063609;28;20030;-83
2021/05/01 00:43:30;;;;;;;10.98;8.60;;;8.40;89.10;;;;;;2055396;28;20030;-83
2021/05/01 00:44:31;;;;;;;9.85;8.23;;;8.50;89.20;;;;;;2055273;28;20117;-83
2021/05/01 00:45:31;;;;;;;9.70;8.15;;;8.40;89.10;;;;;;2077669;28;20485;-83
2021/05/01 00:46:32;;;;;;;12.25;8.35;;;8.40;89.10;;;;;;2081852;28;20022;-83
2021/05/01 00:47:33;;;;;;;11.82;8.93;;;8.40;89.10;;;;;;2074439;28;20064;-83
2021/05/01 00:48:34;;;;;;;12.32;9.43;;;8.40;89.70;;;;;;2077098;28;20025;-83
2021/05/01 00:49:35;;;;;;;12.57;9.00;;;8.40;89.10;;;;;;2068641;28;20038;-83
2021/05/01 00:50:36;;;;;;;10.23;8.50;;;8.40;89.10;;;;;;2086380;28;20113;-83
2021/05/01 00:51:36;;;;;;;10.57;9.00;;;8.40;89.10;;;;;;2082510;28;20033;-83
2021/05/01 00:52:37;;;;;;;12.60;8.93;;;8.40;89.10;;;;;;2072721;28;20034;-82
2021/05/01 00:53:38;;;;;;;11.40;8.80;;;8.40;89.20;;;;;;2086931;28;20100;-83
2021/05/01 00:54:39;;;;;;;11.07;8.73;;;8.40;89.20;;;;;;2085389;28;20025;-83
2021/05/01 00:55:44;;;;;;;12.60;9.18;;;8.40;89.70;;;;;;2070755;28;20030;-83
2021/05/01 00:56:45;;;;;;;14.27;9.15;;;8.40;89.10;;;;;;2070364;28;20111;-83
2021/05/01 00:57:46;;;;;;;13.18;9.50;;;8.40;89.10;;;;;;2078732;28;20067;-83
2021/05/01 00:58:47;;;;;;;11.82;8.70;;;8.40;89.10;;;;;;2079692;28;20025;-83
2021/05/01 00:59:48;;;;;;;11.10;9.00;;;8.40;89.10;;;;;;2070757;28;20802;-83
2021/05/01 01:01:58;;;;;;;12.70;8.45;;;8.40;89.70;;;;;;2068052;28;20033;-82
2021/05/01 01:02:58;;;;;;;9.85;8.35;;;8.40;89.10;;;;;;2076916;28;20036;-83
2021/05/01 01:03:59;;;;;;;12.35;8.57;;;8.40;89.10;;;;;;2054241;28;20037;-83
2021/05/01 01:05:00;;;;;;;10.35;8.85;;;8.40;89.10;;;;;;2061344;28;20036;-83
2021/05/01 01:06:01;;;;;;;13.38;8.85;;;8.40;89.10;;;;;;2061259;28;20030;-83
2021/05/01 01:07:01;;;;;;;12.15;9.35;;;8.30;89.00;;;;;;2077779;28;20025;-83
2021/05/01 01:08:02;;;;;;;11.88;9.00;;;8.30;89.00;;;;;;2073424;28;20455;-83
2021/05/01 01:09:03;;;;;;;14.05;9.93;;;8.30;89.10;;;;;;2069895;28;20528;-83
2021/05/01 01:10:04;;;;;;;12.38;9.48;;;8.30;89.10;;;;;;2075459;28;20072;-83
2021/05/01 01:11:05;;;;;;;12.38;9.40;;;8.30;89.10;;;;;;2080640;28;20573;-83
2021/05/01 01:12:06;;;;;;;12.40;9.27;;;8.30;89.10;;;;;;2069319;28;20034;-83
2021/05/01 01:13:07;;;;;;;11.93;9.52;;;8.30;89.10;;;;;;2077499;28;20053;-83
2021/05/01 01:14:11;;;;;;;11.70;9.15;;;8.30;89.10;;;;;;2077959;28;21510;-82
2021/05/01 01:15:25;;;;;;;13.43;9.68;;;8.30;89.20;;;;;;2068747;28;20516;-83
2021/05/01 01:16:26;;;;;;;13.18;9.35;;;8.20;89.10;;;;;;2072811;28;20515;-83
2021/05/01 01:17:27;;;;;;;12.50;9.27;;;8.20;89.10;;;;;;2075982;28;20029;-83
2021/05/01 01:18:28;;;;;;;13.60;9.98;;;8.20;89.20;;;;;;2082533;28;20044;-83
2021/05/01 01:19:28;;;;;;;11.80;9.27;;;8.20;89.20;;;;;;2074740;28;20034;-82
2021/05/01 01:20:29;;;;;;;11.35;9.50;;;8.20;89.80;;;;;;2081368;28;20021;-82
2021/05/01 01:21:30;;;;;;;11.60;9.30;;;8.20;89.30;;;;;;2067755;28;20504;-83
2021/05/01 01:22:30;;;;;;;12.82;9.68;;;8.10;89.20;;;;;;2068627;28;20026;-83
2021/05/01 01:23:31;;;;;;;11.45;9.80;;;8.10;89.30;;;;;;2084052;28;20057;-84
2021/05/01 01:24:32;;;;;;;12.75;9.20;;;8.10;89.30;;;;;;2078147;28;20121;-83
2021/05/01 01:25:32;;;;;;;12.27;9.50;;;8.10;89.30;;;;;;2076898;28;20034;-83
2021/05/01 01:26:38;;;;;;;11.70;9.77;;;8.10;89.30;;;;;;2077613;28;20281;-83
2021/05/01 01:27:39;;;;;;;11.55;9.23;;;8.10;89.40;;;;;;2074981;28;20442;-84
2021/05/01 01:28:40;;;;;;;11.70;9.48;;;8.10;89.40;;;;;;2070424;28;20177;-83
2021/05/01 01:29:42;;;;;;;13.80;9.93;;;8.10;89.40;;;;;;2062824;28;20537;-83
2021/05/01 01:30:43;;;;;;;11.45;9.05;;;8.10;89.40;;;;;;2088553;28;20074;-83
2021/05/01 01:31:45;;;;;;;12.10;9.80;;;8.00;89.40;;;;;;2070963;28;20101;-83
2021/05/01 01:32:46;;;;;;;13.05;10.13;;;8.00;89.40;;;;;;2063678;28;20121;-83
2021/05/01 01:33:47;;;;;;;13.68;9.98;;;8.00;89.50;;;;;;2069057;28;20053;-83
2021/05/01 01:34:47;;;;;;;11.90;9.50;;;8.00;89.50;;;;;;2058299;28;20061;-83
2021/05/01 01:35:48;;;;;;;12.95;9.82;;;8.00;89.40;;;;;;2050362;28;20517;-83
2021/05/01 01:36:49;;;;;;;10.60;9.25;;;8.00;89.50;;;;;;2067216;28;20018;-83
2021/05/01 01:37:50;;;;;;;12.73;9.52;;;8.00;89.60;;;;;;2064372;28;20472;-83
2021/05/01 01:38:51;;;;;;;13.32;10.25;;;8.00;89.60;;;;;;2069939;28;20502;-83
2021/05/01 01:39:52;;;;;;;14.52;10.20;;;8.00;89.60;;;;;;2071554;28;20064;-83
2021/05/01 01:40:53;;;;;;;12.48;9.93;;;8.00;89.60;;;;;;2071684;28;20500;-83
2021/05/01 01:41:53;;;;;;;12.63;9.68;;;8.00;89.60;;;;;;2066250;28;20042;-83
2021/05/01 01:42:54;;;;;;;12.50;9.63;;;8.00;89.60;;;;;;2069542;28;20019;-83
2021/05/01 01:43:55;;;;;;;12.57;9.32;;;7.90;89.60;;;;;;2063408;28;20519;-83
2021/05/01 01:44:56;;;;;;;11.93;9.27;;;8.00;89.60;;;;;;2055574;28;20031;-82
2021/05/01 01:46:00;;;;;;;12.15;9.35;;;7.90;89.60;;;;;;2076102;28;20076;-83
2021/05/01 01:47:01;;;;;;;12.88;9.88;;;7.90;89.60;;;;;;2086271;28;20025;-83
2021/05/01 01:48:02;;;;;;;10.70;8.80;;;7.90;89.60;;;;;;2086113;28;20086;-83
2021/05/01 01:49:02;;;;;;;11.38;8.75;;;7.90;89.60;;;;;;2080032;28;20064;-83
2021/05/01 01:50:09;;;;;;;10.57;8.50;;;7.90;89.60;;;;;;2065357;28;20039;-83
2021/05/01 01:51:09;;;;;;;10.13;8.43;;;7.90;89.60;;;;;;2082808;28;20037;-83
2021/05/01 01:52:10;;;;;;;11.68;9.00;;;7.90;89.60;;;;;;2088739;28;20056;-83
2021/05/01 01:53:11;;;;;;;10.13;8.38;;;7.90;89.60;;;;;;2063507;28;20027;-83
2021/05/01 01:54:12;;;;;;;10.50;8.57;;;7.90;89.60;;;;;;2064310;28;20108;-82
2021/05/01 01:55:18;;;;;;;11.10;8.73;;;7.90;89.70;;;;;;2072099;28;20117;-83
2021/05/01 01:56:19;;;;;;;10.85;8.10;;;7.90;89.60;;;;;;2069926;28;20046;-83
2021/05/01 01:57:20;;;;;;;11.27;8.20;;;7.90;89.60;;;;;;2076188;28;20080;-83
2021/05/01 01:58:21;;;;;;;11.43;8.85;;;7.90;89.60;;;;;;2069726;28;20058;-83
2021/05/01 01:59:22;;;;;;;9.90;8.13;;;7.90;89.60;;;;;;2087096;28;20144;-84
2021/05/01 02:00:27;;;;;;;10.88;8.30;;;7.80;89.50;;;;;;2081742;28;20041;-83
2021/05/01 02:01:28;;;;;;;9.60;7.57;;;7.80;89.50;;;;;;2073070;28;20038;-83
2021/05/01 02:02:29;;;;;;;9.43;7.78;;;7.90;89.60;;;;;;2065362;28;20701;-83
2021/05/01 02:03:30;;;;;;;11.05;8.32;;;7.90;89.60;;;;;;2055538;28;20040;-83
2021/05/01 02:04:31;;;;;;;11.15;7.68;;;7.80;89.50;;;;;;2071977;28;20041;-84
2021/05/01 02:05:31;;;;;;;9.68;7.65;;;7.80;89.50;;;;;;2072760;28;20512;-83
2021/05/01 02:06:32;;;;;;;11.70;8.30;;;7.90;89.50;;;;;;2061425;28;20063;-84
2021/05/01 02:07:33;;;;;;;9.30;6.93;;;7.90;89.50;;;;;;2073713;28;20166;-84
2021/05/01 02:08:34;;;;;;;10.85;7.15;;;7.80;89.40;;;;;;2063712;28;20026;-84
2021/05/01 02:09:34;;;;;;;9.82;7.55;;;7.80;89.40;;;;;;2063271;28;20034;-84
2021/05/01 02:10:35;;;;;;;8.88;7.03;;;7.80;89.40;;;;;;2070813;28;20075;-83
2021/05/01 02:11:36;;;;;;;9.93;7.32;;;7.80;89.50;;;;;;2067885;28;20463;-83
2021/05/01 02:12:39;;;;;;;9.38;6.78;;;7.80;89.40;;;;;;2066161;28;20022;-83
2021/05/01 02:13:39;;;;;;;9.65;7.20;;;7.90;89.50;;;;;;2071356;28;20056;-83
2021/05/01 02:14:41;;;;;;;8.50;6.85;;;7.80;89.40;;;;;;2071665;28;20045;-84
2021/05/01 02:15:42;;;;;;;11.38;7.25;;;7.80;89.40;;;;;;2080572;28;20041;-84
2021/05/01 02:16:43;;;;;;;8.52;6.65;;;7.80;89.40;;;;;;2076766;28;20507;-83
2021/05/01 02:17:47;;;;;;;9.40;7.20;;;7.80;89.40;;;;;;2071404;28;20169;-83
2021/05/01 02:18:47;;;;;;;12.07;6.88;;;7.80;89.40;;;;;;2072858;28;20037;-83
2021/05/01 02:19:48;;;;;;;8.48;6.85;;;7.80;89.40;;;;;;2078266;28;20032;-83
2021/05/01 02:20:49;;;;;;;9.32;6.68;;;7.80;89.30;;;;;;2069743;28;20515;-83
2021/05/01 02:21:50;;;;;;;10.98;7.85;;;7.80;89.40;;;;;;2078147;28;20098;-83
2021/05/01 02:22:50;;;;;;;8.60;6.47;;;7.80;89.40;;;;;;2081109;28;20450;-82
2021/05/01 02:23:52;;;;;;;8.55;6.45;;;7.80;89.40;;;;;;2088440;28;20407;-83
2021/05/01 02:24:53;;;;;;;9.85;6.90;;;7.80;89.40;;;;;;2087076;28;20037;-83
2021/05/01 02:25:53;;;;;;;10.60;7.45;;;7.80;89.40;;;;;;2087820;28;20045;-83
2021/05/01 02:26:54;;;;;;;8.05;6.30;;;7.80;89.40;;;;;;2088304;28;20502;-83
2021/05/01 02:27:55;;;;;;;10.52;7.68;;;7.80;89.40;;;;;;2087600;28;20079;-83
2021/05/01 02:28:56;;;;;;;9.02;6.82;;;7.80;89.50;;;;;;2093377;28;20037;-82
2021/05/01 02:29:56;;;;;;;9.25;6.93;;;7.80;89.50;;;;;;2085594;28;20064;-83
2021/05/01 02:30:57;;;;;;;8.65;6.85;;;7.80;89.50;;;;;;2073458;28;20391;-83
2021/05/01 02:31:59;;;;;;;8.75;6.78;;;7.80;89.50;;;;;;2056051;28;20078;-83
2021/05/01 02:33:00;;;;;;;9.68;6.45;;;7.80;89.60;;;;;;2070435;28;20053;-83
2021/05/01 02:34:00;;;;;;;10.05;6.85;;;7.70;89.50;;;;;;2076525;28;20036;-83
2021/05/01 02:35:01;;;;;;;9.43;6.75;;;7.70;89.50;;;;;;2085605;28;20130;-83
2021/05/01 02:36:03;;;;;;;9.95;6.93;;;7.70;89.50;;;;;;2083413;28;20029;-82
2021/05/01 02:37:03;;;;;;;9.23;7.10;;;7.70;89.60;;;;;;2085478;28;20092;-83
2021/05/01 02:38:04;;;;;;;7.90;6.20;;;7.70;89.60;;;;;;2077314;28;20040;-83
2021/05/01 02:39:06;;;;;;;9.45;6.80;;;7.70;89.60;;;;;;2069960;28;20209;-83
2021/05/01 02:40:09;;;;;;;8.55;6.50;;;7.60;89.60;;;;;;2063813;28;20041;-83
2021/05/01 02:41:09;;;;;;;9.40;6.93;;;7.60;89.60;;;;;;2073329;28;20167;-82
2021/05/01 02:42:10;;;;;;;9.38;6.68;;;7.60;89.70;;;;;;2081375;28;20467;-83
2021/05/01 02:43:12;;;;;;;10.50;6.88;;;7.60;89.70;;;;;;2078825;28;20117;-83
2021/05/01 02:44:13;;;;;;;9.50;6.55;;;7.60;89.70;;;;;;2089231;28;20413;-83
2021/05/01 02:45:17;;;;;;;8.90;6.72;;;7.60;89.70;;;;;;2077979;28;20045;-83
2021/05/01 02:46:18;;;;;;;9.15;6.22;;;7.60;89.80;;;;;;2077131;28;20030;-83
2021/05/01 02:47:19;;;;;;;8.75;6.35;;;7.50;89.70;;;;;;2064799;28;20157;-83
2021/05/01 02:48:19;;;;;;;9.55;6.60;;;7.50;89.80;;;;;;2062343;28;20044;-82
2021/05/01 02:49:20;;;;;;;9.25;6.65;;;7.50;89.80;;;;;;2084977;28;20039;-83
2021/05/01 02:50:21;;;;;;;9.35;6.47;;;7.50;89.80;;;;;;2078437;28;20080;-83
2021/05/01 02:51:21;;;;;;;8.27;6.55;;;7.40;89.80;;;;;;2071911;28;20053;-83
2021/05/01 02:52:22;;;;;;;8.30;6.20;;;7.40;89.90;;;;;;2072425;28;20084;-83
2021/05/01 02:53:22;;;;;;;9.57;6.85;;;7.40;89.90;;;;;;2079498;28;20084;-83
2021/05/01 02:54:24;;;;;;;7.80;6.50;;;7.40;89.90;;;;;;2075200;28;20084;-84
2021/05/01 02:55:25;;;;;;;9.20;6.65;;;7.40;89.90;;;;;;2062531;28;20056;-83
2021/05/01 02:56:25;;;;;;;10.32;6.43;;;7.40;90.00;;;;;;2063609;28;20077;-83
2021/05/01 02:57:26;;;;;;;8.13;6.20;;;7.40;90.00;;;;;;2062595;28;20084;-82
2021/05/01 02:58:27;;;;;;;8.25;5.88;;;7.40;90.00;;;;;;2055100;28;20393;-83
2021/05/01 02:59:27;;;;;;;8.52;6.47;;;7.30;89.90;;;;;;2048372;28;20175;-83
2021/05/01 03:00:28;;;;;;;8.35;6.13;;;7.40;90.00;;;;;;2062583;28;20033;-83
2021/05/01 03:01:29;;;;;;;9.43;6.72;;;7.30;89.90;;;;;;2076677;28;20037;-83
2021/05/01 03:02:31;;;;;;;8.00;6.47;;;7.30;89.90;;;;;;2069628;28;20030;-83
2021/05/01 03:03:32;;;;;;;8.20;6.35;;;7.30;90.00;;;;;;2072458;28;20551;-83
2021/05/01 03:04:33;;;;;;;9.27;6.43;;;7.30;90.00;;;;;;2073045;28;20041;-84
2021/05/01 03:05:33;;;;;;;8.07;6.22;;;7.30;90.00;;;;;;2064606;28;20099;-83
2021/05/01 03:06:34;;;;;;;10.27;6.55;;;7.30;90.00;;;;;;2055729;28;20560;-83
2021/05/01 03:07:35;;;;;;;7.95;6.30;;;7.30;90.00;;;;;;2055954;28;20027;-83
2021/05/01 03:08:36;;;;;;;7.07;5.63;;;7.30;90.00;;;;;;2078598;28;20034;-83
2021/05/01 03:09:36;;;;;;;9.55;6.53;;;7.30;90.00;;;;;;2083088;28;20041;-83
2021/05/01 03:10:37;;;;;;;7.97;6.10;;;7.30;90.00;;;;;;2070634;28;20105;-83
2021/05/01 03:11:38;;;;;;;8.23;6.22;;;7.30;90.00;;;;;;2069927;28;20034;-83
2021/05/01 03:12:38;;;;;;;8.75;6.60;;;7.20;90.00;;;;;;2070495;28;20033;-83
2021/05/01 03:13:39;;;;;;;9.68;6.15;;;7.20;90.00;;;;;;2084223;28;20060;-83
2021/05/01 03:14:40;;;;;;;9.25;6.80;;;7.20;90.00;;;;;;2079007;28;20068;-83
2021/05/01 03:15:40;;;;;;;9.55;6.60;;;7.20;90.00;;;;;;2079033;28;20040;-82
2021/05/01 03:16:41;;;;;;;8.10;6.05;;;7.20;90.00;;;;;;2054977;28;20034;-83
2021/05/01 03:17:44;;;;;;;8.52;6.43;;;7.20;90.00;;;;;;2064082;28;20037;-83
2021/05/01 03:18:45;;;;;;;7.55;5.72;;;7.20;90.10;;;;;;2080063;28;20034;-81
2021/05/01 03:19:45;;;;;;;8.45;6.05;;;7.10;90.00;;;;;;2072877;28;20030;-83
2021/05/01 03:20:48;;;;;;;8.50;6.35;;;7.10;90.00;;;;;;2068590;28;20068;-82
2021/05/01 03:21:49;;;;;;;8.35;6.18;;;7.10;90.10;;;;;;2075748;28;20048;-83
2021/05/01 03:22:50;;;;;;;7.88;6.03;;;7.10;90.10;;;;;;2074212;28;20065;-83
2021/05/01 03:23:52;;;;;;;8.18;6.30;;;7.10;90.10;;;;;;2082010;28;20025;-83
2021/05/01 03:24:54;;;;;;;10.10;6.88;;;7.10;90.10;;;;;;2076915;28;20030;-83
2021/05/01 03:25:54;;;;;;;7.55;6.05;;;7.10;90.10;;;;;;2060890;28;20034;-83
2021/05/01 03:26:55;;;;;;;7.93;5.72;;;7.00;90.10;;;;;;2062211;28;20061;-83
2021/05/01 03:27:56;;;;;;;8.23;6.13;;;7.00;90.10;;;;;;2055844;28;20035;-83
2021/05/01 03:28:56;;;;;;;8.93;6.28;;;7.00;90.10;;;;;;2048027;28;20409;-83
2021/05/01 03:29:57;;;;;;;8.27;6.32;;;7.00;90.10;;;;;;2054972;28;20038;-83
2021/05/01 03:30:58;;;;;;;9.10;6.45;;;6.90;90.10;;;;;;2069376;28;20030;-82
2021/05/01 03:31:58;;;;;;;8.82;6.25;;;6.90;90.10;;;;;;2058767;28;20404;-83
2021/05/01 03:32:59;;;;;;;8.70;6.20;;;6.90;90.10;;;;;;2060083;28;20038;-83
2021/05/01 03:34:00;;;;;;;8.55;6.32;;;6.90;90.10;;;;;;2053131;28;20130;-83
2021/05/01 03:35:01;;;;;;;7.97;6.13;;;6.90;90.20;;;;;;2063165;28;20041;-83
2021/05/01 03:36:02;;;;;;;9.10;6.40;;;6.80;90.20;;;;;;2063616;28;20066;-84
2021/05/01 03:37:03;;;;;;;7.75;5.95;;;6.90;90.20;;;;;;2086951;28;20029;-83
2021/05/01 03:38:04;;;;;;;9.60;6.63;;;6.80;90.20;;;;;;2071093;28;20030;-83
2021/05/01 03:39:05;;;;;;;9.20;6.80;;;6.80;90.20;;;;;;2072652;28;20022;-83
2021/05/01 03:40:07;;;;;;;7.95;6.28;;;6.80;90.10;;;;;;2075890;28;20025;-83
2021/05/01 03:41:08;;;;;;;10.32;6.60;;;6.80;90.20;;;;;;2075723;28;20022;-83
2021/05/01 03:42:09;;;;;;;8.85;6.40;;;6.80;90.20;;;;;;2069203;28;20041;-83
2021/05/01 03:43:10;;;;;;;8.88;6.50;;;6.80;90.20;;;;;;2069741;28;20027;-83
2021/05/01 03:44:12;;;;;;;8.13;6.53;;;6.80;90.20;;;;;;2078001;28;20030;-83
2021/05/01 03:45:13;;;;;;;8.07;6.50;;;6.70;90.20;;;;;;2068386;28;20038;-83
2021/05/01 03:46:14;;;;;;;8.48;5.90;;;6.70;90.20;;;;;;2067896;28;20535;-83
2021/05/01 03:47:14;;;;;;;8.10;6.35;;;6.70;90.40;;;;;;2075649;28;20033;-83
2021/05/01 03:48:15;;;;;;;8.05;6.22;;;6.70;90.20;;;;;;2096620;28;20032;-83
2021/05/01 03:49:16;;;;;;;9.60;6.55;;;6.70;90.20;;;;;;2077261;28;20511;-83
2021/05/01 03:50:16;;;;;;;8.10;6.35;;;6.60;90.20;;;;;;2062051;28;20477;-84
2021/05/01 03:51:17;;;;;;;8.50;6.40;;;6.60;90.20;;;;;;2070554;28;20080;-82
2021/05/01 03:52:18;;;;;;;10.25;7.35;;;6.60;90.20;;;;;;2084107;28;20427;-83
2021/05/01 03:53:19;;;;;;;9.05;6.70;;;6.60;90.20;;;;;;2076808;28;20594;-83
2021/05/01 03:54:20;;;;;;;9.57;7.20;;;6.60;90.30;;;;;;2068689;28;20045;-84
2021/05/01 03:55:20;;;;;;;8.45;6.70;;;6.60;90.30;;;;;;2070599;28;20411;-83
2021/05/01 03:56:21;;;;;;;10.55;6.82;;;6.60;90.30;;;;;;2080551;28;20069;-83
2021/05/01 03:57:22;;;;;;;9.20;6.95;;;6.60;90.30;;;;;;2074950;28;20022;-83
2021/05/01 03:58:22;;;;;;;8.45;6.55;;;6.50;90.30;;;;;;2077954;28;20477;-82
2021/05/01 03:59:23;;;;;;;8.25;6.90;;;6.50;90.30;;;;;;2070264;28;20022;-82
2021/05/01 04:00:24;;;;;;;11.05;7.20;;;6.50;90.30;;;;;;2065199;28;21194;-82
2021/05/01 04:01:25;;;;;;;9.38;6.57;;;6.50;90.30;;;;;;2074817;28;20030;-82
2021/05/01 04:02:25;;;;;;;9.45;7.20;;;6.50;90.50;;;;;;2077356;28;20048;-82
2021/05/01 04:03:26;;;;;;;10.20;7.20;;;6.50;90.20;;;;;;2060159;28;20493;-82
2021/05/01 04:04:27;;;;;;;9.05;7.07;;;6.50;90.30;;;;;;2081340;28;20126;-82
2021/05/01 04:05:28;;;;;;;9.90;7.28;;;6.50;90.30;;;;;;2080821;28;20068;-83
2021/05/01 04:06:29;;;;;;;11.43;7.43;;;6.50;90.20;;;;;;2070809;28;20563;-82
2021/05/01 04:07:29;;;;;;;9.70;7.78;;;6.50;90.20;;;;;;2068667;28;20026;-83
2021/05/01 04:08:30;;;;;;;9.80;7.82;;;6.40;90.20;;;;;;2078480;28;20400;-82
2021/05/01 04:09:31;;;;;;;9.07;7.15;;;6.50;90.20;;;;;;2075380;28;20025;-83
2021/05/01 04:10:33;;;;;;;9.27;6.93;;;6.40;90.20;;;;;;2069617;28;20062;-83
2021/05/01 04:11:35;;;;;;;9.15;7.28;;;6.40;90.20;;;;;;2079762;28;20593;-83
2021/05/01 04:12:35;;;;;;;9.00;7.20;;;6.40;90.20;;;;;;2073749;28;20041;-83
2021/05/01 04:13:42;;;;;;;8.40;7.50;;;6.40;90.20;;;;;;2069144;28;20407;-83
2021/05/01 04:14:43;;;;;;;10.52;7.93;;;6.40;90.20;;;;;;2073449;28;20037;-83
2021/05/01 04:15:44;;;;;;;11.30;7.88;;;6.40;90.20;;;;;;2077482;28;20033;-83
2021/05/01 04:16:44;;;;;;;11.10;7.72;;;6.40;90.20;;;;;;2076369;28;20032;-83
2021/05/01 04:17:48;;;;;;;10.80;8.00;;;6.40;90.20;;;;;;2069579;28;20488;-83
2021/05/01 04:18:49;;;;;;;10.85;7.90;;;6.40;90.20;;;;;;2078007;28;20052;-83
2021/05/01 04:19:49;;;;;;;9.93;8.00;;;6.40;90.20;;;;;;2083096;28;20447;-83
2021/05/01 04:20:50;;;;;;;10.25;7.93;;;6.40;90.20;;;;;;2078161;28;20026;-83
2021/05/01 04:21:51;;;;;;;10.10;8.00;;;6.30;90.20;;;;;;2072102;28;20116;-82
2021/05/01 04:22:52;;;;;;;11.13;7.82;;;6.30;90.20;;;;;;2077165;28;20112;-83
2021/05/01 04:23:52;;;;;;;9.02;7.70;;;6.30;90.20;;;;;;2077787;28;20025;-83
2021/05/01 04:24:53;;;;;;;9.95;7.80;;;6.30;90.20;;;;;;2067284;28;20038;-82
2021/05/01 04:25:54;;;;;;;10.20;7.90;;;6.30;90.20;;;;;;2065464;28;20511;-82
2021/05/01 04:26:54;;;;;;;10.48;8.20;;;6.30;90.20;;;;;;2083397;28;20391;-82
2021/05/01 04:27:55;;;;;;;9.75;7.88;;;6.30;90.20;;;;;;2071176;28;20065;-82
2021/05/01 04:28:57;;;;;;;10.00;8.02;;;6.30;90.20;;;;;;2062452;28;20053;-83
2021/05/01 04:29:57;;;;;;;10.55;8.20;;;6.30;90.20;;;;;;2052377;28;20118;-83
2021/05/01 04:30:59;;;;;;;10.25;8.18;;;6.30;90.20;;;;;;2071877;28;20029;-82
2021/05/01 04:32:00;;;;;;;9.13;7.63;;;6.30;90.20;;;;;;2072488;28;20061;-82
2021/05/01 04:33:01;;;;;;;11.35;8.15;;;6.30;90.20;;;;;;2069270;28;20045;-83
2021/05/01 04:34:01;;;;;;;10.10;8.43;;;6.30;90.20;;;;;;2060364;28;20026;-82
2021/05/01 04:35:04;;;;;;;10.07;7.85;;;6.30;90.20;;;;;;2061925;28;20069;-82
2021/05/01 04:36:05;;;;;;;10.52;8.07;;;6.30;90.20;;;;;;2062636;28;20495;-82
2021/05/01 04:37:06;;;;;;;10.32;7.93;;;6.30;90.20;;;;;;2055279;28;20039;-83
2021/05/01 04:38:06;;;;;;;10.60;8.02;;;6.30;90.20;;;;;;2061108;28;20693;-83
2021/05/01 04:39:07;;;;;;;10.30;7.85;;;6.20;90.20;;;;;;2061250;28;20506;-83
2021/05/01 04:40:08;;;;;;;9.63;8.00;;;6.30;90.20;;;;;;2063030;28;20149;-83
2021/05/01 04:41:10;;;;;;;10.15;7.90;;;6.30;90.20;;;;;;2069451;28;20058;-83
2021/05/01 04:42:12;;;;;;;9.63;7.65;;;6.20;90.20;;;;;;2079365;28;20024;-83
2021/05/01 04:43:13;;;;;;;10.27;8.10;;;6.30;90.20;;;;;;2060726;28;20042;-83
2021/05/01 04:44:14;;;;;;;10.60;8.20;;;6.30;90.20;;;;;;2079795;28;20446;-83
2021/05/01 04:45:17;;;;;;;11.43;8.20;;;6.30;90.20;;;;;;2078817;28;20029;-83
2021/05/01 04:46:19;;;;;;;9.20;7.75;;;6.30;90.20;;;;;;2071317;28;20050;-83
2021/05/01 04:47:19;;;;;;;11.93;8.35;;;6.30;90.20;;;;;;2072968;28;20520;-83
2021/05/01 04:48:21;;;;;;;10.88;8.38;;;6.30;90.50;;;;;;2066010;28;20026;-83
2021/05/01 04:49:21;;;;;;;12.52;8.35;;;6.30;90.10;;;;;;2058124;28;20027;-83
2021/05/01 04:50:23;;;;;;;11.32;8.15;;;6.30;90.10;;;;;;2068231;28;20400;-82
2021/05/01 04:51:23;;;;;;;10.43;8.35;;;6.30;90.10;;;;;;2054163;28;20031;-82
2021/05/01 04:52:24;;;;;;;10.90;8.10;;;6.30;90.10;;;;;;2054580;28;20113;-82
2021/05/01 04:53:25;;;;;;;10.68;8.10;;;6.30;90.10;;;;;;2075449;28;20700;-82
2021/05/01 04:54:26;;;;;;;9.60;7.63;;;6.40;90.10;;;;;;2083338;28;20124;-82
2021/05/01 04:55:27;;;;;;;11.68;8.38;;;6.30;90.10;;;;;;2084674;28;20037;-81
2021/05/01 04:56:27;;;;;;;9.82;8.20;;;6.30;90.00;;;;;;2069913;28;20122;-83
2021/05/01 04:57:28;;;;;;;9.82;7.95;;;6.40;90.10;;;;;;2062078;28;20023;-83
2021/05/01 04:58:29;;;;;;;10.82;8.18;;;6.40;90.10;;;;;;2062500;28;20407;-83
2021/05/01 04:59:29;;;;;;;11.13;7.63;;;6.40;90.10;;;;;;2063904;28;20022;-82
2021/05/01 05:00:30;;;;;;;9.80;8.07;;;6.40;90.10;;;;;;2067333;28;20520;-82
2021/05/01 05:01:31;;;;;;;10.77;8.13;;;6.40;90.10;;;;;;2062860;28;20105;-83
2021/05/01 05:02:31;;;;;;;10.25;8.38;;;6.40;90.00;;;;;;2072112;28;20038;-83
2021/05/01 05:03:32;;;;;;;10.27;8.50;;;6.40;90.00;;;;;;2065341;28;20026;-83
2021/05/01 05:04:33;;;;;;;9.65;7.80;;;6.50;90.30;;;;;;2067897;28;20128;-82
2021/05/01 05:05:34;;;;;;;11.80;8.27;;;6.50;90.00;;;;;;2065058;28;20109;-83
2021/05/01 05:06:34;;;;;;;10.63;8.00;;;6.60;90.00;;;;;;2064317;28;20109;-82
2021/05/01 05:07:35;;;;;;;9.07;7.75;;;6.50;89.80;;;;;;2071810;28;20044;-81
2021/05/01 05:08:36;;;;;;;9.50;7.75;;;6.60;89.80;;;;;;2073648;28;20033;-83
2021/05/01 05:09:37;;;;;;;9.85;8.05;;;6.60;89.70;;;;;;2072900;28;20404;-82
2021/05/01 05:10:38;;;;;;;8.82;7.55;;;6.60;89.60;;;;;;2080118;28;20124;-82
2021/05/01 05:11:38;;;;;;;9.75;8.10;;;6.70;89.60;;;;;;2066126;28;20026;-82
2021/05/01 05:12:39;;;;;;;10.43;7.75;;;6.70;89.50;;;;;;2077686;28;20068;-82
2021/05/01 05:13:40;;;;;;;11.68;8.88;;;6.70;89.40;;;;;;2082492;28;20117;-82
2021/05/01 05:14:40;;;;;;;10.65;8.23;;;6.80;89.40;;;;;;2077922;28;20113;-82
2021/05/01 05:15:41;;;;;;;11.98;8.55;;;6.80;89.40;;;;;;2075338;28;20037;-84
2021/05/01 05:16:41;;;;;;;10.82;8.18;;;6.80;89.20;;;;;;2076963;28;20494;-82
2021/05/01 05:17:42;;;;;;;10.07;8.13;;;6.80;89.10;;;;;;2075716;28;20023;-83
2021/05/01 05:18:43;;;;;;;8.88;7.35;;;6.90;89.10;;;;;;2085228;28;20057;-84
2021/05/01 05:19:44;;;;;;;9.27;7.68;;;6.90;89.00;;;;;;2087011;28;20506;-83
2021/05/01 05:20:45;;;;;;;10.45;8.10;;;6.90;88.90;;;;;;2079451;28;20033;-83
2021/05/01 05:21:46;;;;;;;9.80;7.65;;;7.00;88.90;;;;;;2075646;28;20025;-82